sensor_id;sensor_type;location;lat;lon;timestamp;pressure;altitude;pressure_sealevel;temperature;humidity
51687;BME280;37774;52.192;4.584;2023-11-21T01:32:31;58496.22;;;-147.98;100.00
51687;BME280;37774;52.192;4.584;2023-11-21T01:38:03;58496.22;;;-147.98;100.00
51687;BME280;37774;52.192;4.584;2023-11-21T01:46:20;58496.22;;;-147.98;100.00
51687;BME280;37774;52.192;4.584;2023-11-21T01:49:05;58496.22;;;-147.98;100.00
51687;BME280;37774;52.192;4.584;2023-11-21T01:51:53;58496.22;;;-147.98;100.00
51687;BME280;37774;52.192;4.584;2023-11-21T01:54:38;58496.22;;;-147.98;100.00
51687;BME280;37774;52.192;4.584;2023-11-21T01:57:24;58496.22;;;-147.98;100.00
51687;BME280;37774;52.192;4.584;2023-11-21T02:11:16;111736.88;;;-147.98;nan
51687;BME280;37774;52.192;4.584;2023-11-21T02:25:18;58496.22;;;-147.98;100.00
51687;BME280;37774;52.192;4.584;2023-11-21T02:36:24;58496.22;;;-147.98;nan
51687;BME280;37774;52.192;4.584;2023-11-21T02:39:09;58496.22;;;-147.98;100.00
51687;BME280;37774;52.192;4.584;2023-11-21T02:44:42;58496.22;;;-147.98;100.00
51687;BME280;37774;52.192;4.584;2023-11-21T02:47:27;58496.22;;;-147.98;100.00
51687;BME280;37774;52.192;4.584;2023-11-21T02:58:30;58496.22;;;-147.98;100.00
51687;BME280;37774;52.192;4.584;2023-11-21T03:09:31;58496.22;;;-147.98;100.00
51687;BME280;37774;52.192;4.584;2023-11-21T03:17:50;111736.88;;;-147.98;nan
51687;BME280;37774;52.192;4.584;2023-11-21T03:20:36;58496.22;;;-147.98;100.00
51687;BME280;37774;52.192;4.584;2023-11-21T04:35:04;58496.22;;;-147.98;100.00
51687;BME280;37774;52.192;4.584;2023-11-21T04:37:51;58496.22;;;-147.98;100.00
51687;BME280;37774;52.192;4.584;2023-11-21T04:40:37;58496.22;;;-147.98;100.00
51687;BME280;37774;52.192;4.584;2023-11-21T04:43:23;58496.22;;;-147.98;100.00
51687;BME280;37774;52.192;4.584;2023-11-21T04:46:08;58496.22;;;-147.98;100.00
51687;BME280;37774;52.192;4.584;2023-11-21T04:51:39;58496.22;;;-147.98;100.00
51687;BME280;37774;52.192;4.584;2023-11-21T05:33:02;101915.00;;;8.84;nan
51687;BME280;37774;52.192;4.584;2023-11-21T05:35:48;102187.31;;;8.88;nan
51687;BME280;37774;52.192;4.584;2023-11-21T05:38:33;102305.53;;;8.82;nan
51687;BME280;37774;52.192;4.584;2023-11-21T05:41:19;102298.78;;;8.90;nan
51687;BME280;37774;52.192;4.584;2023-11-21T05:44:06;102177.00;;;8.91;nan
51687;BME280;37774;52.192;4.584;2023-11-21T05:46:53;102129.50;;;8.94;nan
51687;BME280;37774;52.192;4.584;2023-11-21T05:49:39;102108.03;;;9.00;nan
51687;BME280;37774;52.192;4.584;2023-11-21T05:52:24;102099.69;;;9.16;nan
51687;BME280;37774;52.192;4.584;2023-11-21T05:55:10;101838.81;;;9.31;nan
51687;BME280;37774;52.192;4.584;2023-11-21T05:57:55;101623.78;;;9.57;nan
51687;BME280;37774;52.192;4.584;2023-11-21T06:00:42;101442.31;;;9.88;nan
51687;BME280;37774;52.192;4.584;2023-11-21T06:03:27;101618.81;;;9.85;nan
51687;BME280;37774;52.192;4.584;2023-11-21T06:06:13;101564.16;;;9.65;nan
51687;BME280;37774;52.192;4.584;2023-11-21T06:08:58;101498.44;;;9.69;nan
51687;BME280;37774;52.192;4.584;2023-11-21T06:11:44;101406.72;;;9.62;nan
51687;BME280;37774;52.192;4.584;2023-11-21T06:14:29;101370.41;;;9.64;nan
51687;BME280;37774;52.192;4.584;2023-11-21T06:17:18;101196.53;;;9.65;nan
51687;BME280;37774;52.192;4.584;2023-11-21T06:20:05;101152.41;;;9.55;nan
51687;BME280;37774;52.192;4.584;2023-11-21T06:22:53;101094.41;;;9.37;nan
51687;BME280;37774;52.192;4.584;2023-11-21T06:25:38;101056.38;;;9.42;nan
51687;BME280;37774;52.192;4.584;2023-11-21T06:28:24;100978.59;;;9.34;nan
51687;BME280;37774;52.192;4.584;2023-11-21T06:31:10;100901.63;;;9.37;nan
51687;BME280;37774;52.192;4.584;2023-11-21T06:33:57;100817.78;;;9.36;nan
51687;BME280;37774;52.192;4.584;2023-11-21T06:36:43;100771.94;;;9.35;nan
51687;BME280;37774;52.192;4.584;2023-11-21T06:39:29;100712.31;;;9.37;nan
51687;BME280;37774;52.192;4.584;2023-11-21T06:42:15;100674.28;;;9.35;nan
51687;BME280;37774;52.192;4.584;2023-11-21T06:45:00;100650.91;;;9.40;nan
51687;BME280;37774;52.192;4.584;2023-11-21T06:47:47;100605.88;;;9.50;nan
51687;BME280;37774;52.192;4.584;2023-11-21T06:50:35;100572.16;;;9.52;nan
51687;BME280;37774;52.192;4.584;2023-11-21T06:53:20;100534.13;;;9.49;nan
51687;BME280;37774;52.192;4.584;2023-11-21T06:56:15;100523.78;;;9.45;nan
51687;BME280;37774;52.192;4.584;2023-11-21T06:59:00;100454.53;;;9.56;nan
51687;BME280;37774;52.192;4.584;2023-11-21T07:01:47;100440.75;;;9.51;nan
51687;BME280;37774;52.192;4.584;2023-11-21T07:04:33;100385.41;;;9.52;nan
51687;BME280;37774;52.192;4.584;2023-11-21T07:07:20;100315.31;;;9.54;nan
51687;BME280;37774;52.192;4.584;2023-11-21T07:10:06;100252.22;;;9.55;nan
51687;BME280;37774;52.192;4.584;2023-11-21T07:12:52;100301.59;;;9.45;nan
51687;BME280;37774;52.192;4.584;2023-11-21T07:15:38;100247.28;;;9.34;nan
51687;BME280;37774;52.192;4.584;2023-11-21T07:18:23;100004.06;;;9.54;nan
51687;BME280;37774;52.192;4.584;2023-11-21T07:21:08;100055.00;;;9.59;nan
51687;BME280;37774;52.192;4.584;2023-11-21T07:24:00;100000.56;;;9.58;nan
51687;BME280;37774;52.192;4.584;2023-11-21T07:26:46;100010.13;;;9.54;nan
51687;BME280;37774;52.192;4.584;2023-11-21T07:29:32;99962.44;;;9.61;nan
51687;BME280;37774;52.192;4.584;2023-11-21T07:32:18;99934.78;;;9.60;nan
51687;BME280;37774;52.192;4.584;2023-11-21T07:35:04;99913.94;;;9.67;nan
51687;BME280;37774;52.192;4.584;2023-11-21T07:37:49;99889.88;;;9.60;nan
51687;BME280;37774;52.192;4.584;2023-11-21T07:40:36;99887.09;;;9.69;nan
51687;BME280;37774;52.192;4.584;2023-11-21T07:43:22;99803.25;;;9.67;nan
51687;BME280;37774;52.192;4.584;2023-11-21T07:46:08;99768.66;;;9.67;nan
51687;BME280;37774;52.192;4.584;2023-11-21T07:48:55;99743.38;;;9.76;nan
51687;BME280;37774;52.192;4.584;2023-11-21T07:51:40;99742.56;;;9.74;nan
51687;BME280;37774;52.192;4.584;2023-11-21T07:54:26;99687.97;;;9.79;nan
51687;BME280;37774;52.192;4.584;2023-11-21T07:57:13;99709.75;;;9.72;nan
51687;BME280;37774;52.192;4.584;2023-11-21T07:59:58;99715.00;;;9.69;nan
51687;BME280;37774;52.192;4.584;2023-11-21T08:02:44;99669.94;;;9.73;nan
51687;BME280;37774;52.192;4.584;2023-11-21T08:05:30;99668.06;;;9.79;nan
51687;BME280;37774;52.192;4.584;2023-11-21T08:08:15;99678.53;;;9.76;nan
51687;BME280;37774;52.192;4.584;2023-11-21T08:11:02;99623.09;;;9.79;nan
51687;BME280;37774;52.192;4.584;2023-11-21T08:13:49;99661.19;;;9.78;nan
51687;BME280;37774;52.192;4.584;2023-11-21T08:16:34;99681.13;;;9.75;nan
51687;BME280;37774;52.192;4.584;2023-11-21T08:19:20;99764.09;;;9.78;nan
51687;BME280;37774;52.192;4.584;2023-11-21T08:22:06;99766.59;;;9.83;nan
51687;BME280;37774;52.192;4.584;2023-11-21T08:24:53;99830.66;;;9.79;nan
51687;BME280;37774;52.192;4.584;2023-11-21T08:27:39;99807.22;;;9.84;nan
51687;BME280;37774;52.192;4.584;2023-11-21T08:30:26;99847.81;;;9.88;nan
51687;BME280;37774;52.192;4.584;2023-11-21T08:33:13;99867.63;;;9.90;nan
51687;BME280;37774;52.192;4.584;2023-11-21T08:35:59;99774.97;;;9.96;nan
51687;BME280;37774;52.192;4.584;2023-11-21T08:38:45;99872.88;;;9.87;nan
51687;BME280;37774;52.192;4.584;2023-11-21T08:41:30;99909.13;;;9.92;nan
51687;BME280;37774;52.192;4.584;2023-11-21T08:44:16;99894.50;;;9.88;nan
51687;BME280;37774;52.192;4.584;2023-11-21T08:47:03;99875.47;;;9.89;nan
51687;BME280;37774;52.192;4.584;2023-11-21T08:49:49;99948.84;;;9.96;nan
51687;BME280;37774;52.192;4.584;2023-11-21T08:52:37;99969.59;;;9.97;nan
51687;BME280;37774;52.192;4.584;2023-11-21T08:55:22;99935.69;;;10.05;nan
51687;BME280;37774;52.192;4.584;2023-11-21T08:58:08;99966.94;;;9.99;nan
51687;BME280;37774;52.192;4.584;2023-11-21T09:00:53;99971.19;;;10.03;nan
51687;BME280;37774;52.192;4.584;2023-11-21T09:03:40;99954.84;;;9.99;nan
51687;BME280;37774;52.192;4.584;2023-11-21T09:06:25;99948.78;;;10.00;nan
51687;BME280;37774;52.192;4.584;2023-11-21T09:09:10;99951.47;;;9.94;nan
51687;BME280;37774;52.192;4.584;2023-11-21T09:11:56;99965.41;;;9.88;nan
51687;BME280;37774;52.192;4.584;2023-11-21T09:14:42;100000.91;;;9.88;nan
51687;BME280;37774;52.192;4.584;2023-11-21T09:17:27;100006.13;;;9.86;nan
51687;BME280;37774;52.192;4.584;2023-11-21T09:20:14;99961.94;;;9.89;nan
51687;BME280;37774;52.192;4.584;2023-11-21T09:23:00;100009.47;;;9.91;nan
51687;BME280;37774;52.192;4.584;2023-11-21T09:25:48;100013.69;;;9.99;nan
51687;BME280;37774;52.192;4.584;2023-11-21T09:28:36;100036.03;;;10.06;nan
51687;BME280;37774;52.192;4.584;2023-11-21T09:31:23;99986.50;;;10.18;nan
51687;BME280;37774;52.192;4.584;2023-11-21T09:34:08;99977.72;;;10.26;nan
51687;BME280;37774;52.192;4.584;2023-11-21T09:36:56;99938.25;;;10.06;nan
51687;BME280;37774;52.192;4.584;2023-11-21T09:39:41;100009.88;;;10.17;nan
51687;BME280;37774;52.192;4.584;2023-11-21T09:42:30;100001.25;;;10.16;nan
51687;BME280;37774;52.192;4.584;2023-11-21T09:45:25;100018.66;;;10.11;nan
51687;BME280;37774;52.192;4.584;2023-11-21T09:48:10;99981.56;;;10.04;nan
51687;BME280;37774;52.192;4.584;2023-11-21T09:50:57;100003.47;;;9.89;nan
51687;BME280;37774;52.192;4.584;2023-11-21T09:53:47;99916.22;;;9.84;nan
51687;BME280;37774;52.192;4.584;2023-11-21T09:56:34;99849.66;;;9.81;nan
51687;BME280;37774;52.192;4.584;2023-11-21T09:59:20;99861.66;;;9.87;nan
51687;BME280;37774;52.192;4.584;2023-11-21T10:02:07;99876.34;;;9.88;nan
51687;BME280;37774;52.192;4.584;2023-11-21T10:04:56;99820.78;;;9.98;nan
51687;BME280;37774;52.192;4.584;2023-11-21T10:07:43;99820.91;;;9.90;nan
51687;BME280;37774;52.192;4.584;2023-11-21T10:10:32;99804.59;;;9.85;nan
51687;BME280;37774;52.192;4.584;2023-11-21T10:13:18;99822.13;;;9.74;nan
51687;BME280;37774;52.192;4.584;2023-11-21T10:16:05;99810.03;;;9.73;nan
51687;BME280;37774;52.192;4.584;2023-11-21T10:18:53;99794.41;;;9.76;nan
51687;BME280;37774;52.192;4.584;2023-11-21T10:21:39;99800.53;;;9.72;nan
51687;BME280;37774;52.192;4.584;2023-11-21T10:24:25;99788.47;;;9.71;nan
51687;BME280;37774;52.192;4.584;2023-11-21T10:27:12;99913.03;;;9.68;nan
51687;BME280;37774;52.192;4.584;2023-11-21T10:29:57;99841.28;;;9.67;nan
51687;BME280;37774;52.192;4.584;2023-11-21T10:32:43;99781.69;;;9.63;nan
51687;BME280;37774;52.192;4.584;2023-11-21T10:35:39;99673.63;;;9.62;nan
51687;BME280;37774;52.192;4.584;2023-11-21T10:38:25;99671.91;;;9.63;nan
51687;BME280;37774;52.192;4.584;2023-11-21T10:41:11;99704.47;;;9.76;nan
51687;BME280;37774;52.192;4.584;2023-11-21T10:44:00;99661.47;;;9.66;nan
51687;BME280;37774;52.192;4.584;2023-11-21T10:46:49;99665.41;;;9.83;nan
51687;BME280;37774;52.192;4.584;2023-11-21T10:49:36;99637.47;;;9.92;nan
51687;BME280;37774;52.192;4.584;2023-11-21T10:52:27;99568.94;;;10.01;nan
51687;BME280;37774;52.192;4.584;2023-11-21T10:55:18;99574.38;;;9.90;nan
51687;BME280;37774;52.192;4.584;2023-11-21T10:58:05;99573.97;;;10.07;nan
51687;BME280;37774;52.192;4.584;2023-11-21T11:00:53;99583.56;;;10.04;nan
51687;BME280;37774;52.192;4.584;2023-11-21T11:03:39;99616.03;;;9.86;nan
51687;BME280;37774;52.192;4.584;2023-11-21T11:06:25;99669.38;;;9.98;nan
51687;BME280;37774;52.192;4.584;2023-11-21T11:09:13;99665.13;;;9.95;nan
51687;BME280;37774;52.192;4.584;2023-11-21T11:12:01;99698.63;;;10.04;nan
51687;BME280;37774;52.192;4.584;2023-11-21T11:14:48;99768.19;;;9.90;nan
51687;BME280;37774;52.192;4.584;2023-11-21T11:17:36;99800.91;;;9.96;nan
51687;BME280;37774;52.192;4.584;2023-11-21T11:20:27;99838.88;;;10.00;nan
51687;BME280;37774;52.192;4.584;2023-11-21T11:23:31;99814.78;;;9.94;nan
51687;BME280;37774;52.192;4.584;2023-11-21T11:26:26;99818.31;;;9.92;nan
51687;BME280;37774;52.192;4.584;2023-11-21T11:29:26;99823.38;;;9.98;nan
51687;BME280;37774;52.192;4.584;2023-11-21T11:32:21;99812.97;;;9.98;nan
51687;BME280;37774;52.192;4.584;2023-11-21T11:35:19;99763.38;;;10.12;nan
51687;BME280;37774;52.192;4.584;2023-11-21T11:38:07;99738.03;;;10.22;nan
51687;BME280;37774;52.192;4.584;2023-11-21T11:40:54;99708.28;;;10.35;nan
51687;BME280;37774;52.192;4.584;2023-11-21T11:43:39;99745.50;;;10.36;nan
51687;BME280;37774;52.192;4.584;2023-11-21T11:46:41;99796.03;;;10.22;nan
51687;BME280;37774;52.192;4.584;2023-11-21T11:49:27;99827.41;;;10.12;nan
51687;BME280;37774;52.192;4.584;2023-11-21T11:52:34;99861.22;;;10.07;nan
51687;BME280;37774;52.192;4.584;2023-11-21T11:55:21;99884.97;;;9.88;nan
51687;BME280;37774;52.192;4.584;2023-11-21T11:58:07;99877.69;;;10.06;nan
51687;BME280;37774;52.192;4.584;2023-11-21T12:00:53;99905.31;;;10.10;nan
51687;BME280;37774;52.192;4.584;2023-11-21T12:03:39;99894.06;;;10.11;nan
51687;BME280;37774;52.192;4.584;2023-11-21T12:06:33;99914.09;;;10.03;nan
51687;BME280;37774;52.192;4.584;2023-11-21T12:09:21;99940.84;;;10.06;nan
51687;BME280;37774;52.192;4.584;2023-11-21T12:12:08;100120.91;;;10.02;nan
51687;BME280;37774;52.192;4.584;2023-11-21T12:14:53;100116.78;;;9.90;nan
51687;BME280;37774;52.192;4.584;2023-11-21T12:17:39;100119.25;;;9.98;nan
51687;BME280;37774;52.192;4.584;2023-11-21T12:20:25;100109.91;;;9.86;nan
51687;BME280;37774;52.192;4.584;2023-11-21T12:23:11;100078.72;;;9.89;nan
51687;BME280;37774;52.192;4.584;2023-11-21T12:26:00;100004.19;;;9.98;nan
51687;BME280;37774;52.192;4.584;2023-11-21T12:28:51;99945.69;;;10.25;nan
51687;BME280;37774;52.192;4.584;2023-11-21T12:31:39;99904.88;;;10.32;nan
51687;BME280;37774;52.192;4.584;2023-11-21T12:34:25;99867.06;;;10.18;nan
51687;BME280;37774;52.192;4.584;2023-11-21T12:37:11;99832.75;;;10.04;nan
51687;BME280;37774;52.192;4.584;2023-11-21T12:39:56;99768.66;;;10.06;nan
51687;BME280;37774;52.192;4.584;2023-11-21T12:42:44;99690.31;;;10.28;nan
51687;BME280;37774;52.192;4.584;2023-11-21T12:45:30;99680.75;;;10.28;nan
51687;BME280;37774;52.192;4.584;2023-11-21T12:48:15;99582.88;;;10.32;nan
51687;BME280;37774;52.192;4.584;2023-11-21T12:51:08;99475.50;;;10.33;nan
